createdAt,value
2016-01-18T00:00:49.036Z,0
2016-01-18T00:01:49.054Z,0
2016-01-18T00:02:49.135Z,0
2016-01-18T00:03:49.184Z,0
2016-01-18T00:04:49.234Z,0
2016-01-18T00:05:49.299Z,0
2016-01-18T00:06:49.348Z,0
2016-01-18T00:07:49.398Z,0
2016-01-18T00:08:49.464Z,0
2016-01-18T00:09:49.513Z,0
2016-01-18T00:10:49.547Z,0
2016-01-18T00:11:49.612Z,0
2016-01-18T00:12:49.662Z,0
2016-01-18T00:13:49.727Z,0
2016-01-18T00:14:49.777Z,0
2016-01-18T00:15:49.841Z,0
2016-01-18T00:16:49.875Z,0
2016-01-18T00:17:49.941Z,0
2016-01-18T00:18:50.006Z,0
2016-01-18T00:19:50.055Z,0
2016-01-18T00:20:50.105Z,0
2016-01-18T00:21:50.155Z,0
2016-01-18T00:22:50.219Z,0
2016-01-18T00:23:50.269Z,0
2016-01-18T00:24:50.318Z,0
2016-01-18T00:25:50.385Z,0
2016-01-18T00:26:50.418Z,0
2016-01-18T00:27:50.483Z,0
2016-01-18T00:28:50.549Z,0
2016-01-18T00:29:50.582Z,0
2016-01-18T00:30:50.648Z,0
2016-01-18T00:31:50.713Z,0
2016-01-18T00:32:50.746Z,0
2016-01-18T00:33:50.843Z,0
2016-01-18T00:34:50.861Z,0
2016-01-18T00:35:50.942Z,0
2016-01-18T00:36:50.992Z,0
2016-01-18T00:37:51.010Z,0
2016-01-18T00:38:51.092Z,0
2016-01-18T00:39:51.125Z,0
2016-01-18T00:40:51.690Z,0
2016-01-18T00:41:51.239Z,0
2016-01-18T00:42:51.306Z,0
2016-01-18T00:43:51.339Z,0
2016-01-18T00:44:51.404Z,0
2016-01-18T00:45:51.454Z,0
2016-01-18T00:46:51.519Z,0
2016-01-18T00:47:51.570Z,0
2016-01-18T00:48:51.620Z,0
2016-01-18T00:49:51.529Z,0
2016-01-18T00:50:51.751Z,0
2016-01-18T00:51:51.785Z,0
2016-01-18T00:52:51.849Z,0
2016-01-18T00:53:51.899Z,0
2016-01-18T00:54:51.995Z,0
2016-01-18T00:55:52.015Z,0
2016-01-18T00:56:52.063Z,0
2016-01-18T00:57:52.112Z,0
2016-01-18T00:58:52.162Z,0
2016-01-18T00:59:52.228Z,0
2016-01-18T01:00:52.293Z,0
2016-01-18T01:01:52.326Z,0
2016-01-18T01:02:52.392Z,0
2016-01-18T01:03:52.442Z,0
2016-01-18T01:04:52.492Z,0
2016-01-18T01:05:52.541Z,0
2016-01-18T01:06:52.621Z,0
2016-01-18T01:07:52.672Z,0
2016-01-18T01:08:52.721Z,0
2016-01-18T01:09:52.770Z,0
2016-01-18T01:10:52.819Z,0
2016-01-18T01:11:52.869Z,0
2016-01-18T01:12:52.935Z,0
2016-01-18T01:13:52.984Z,0
2016-01-18T01:14:53.033Z,0
2016-01-18T01:15:53.114Z,0
2016-01-18T01:16:53.133Z,0
2016-01-18T01:17:53.480Z,0
2016-01-18T01:18:53.247Z,0
2016-01-18T01:19:53.297Z,0
2016-01-18T01:20:53.394Z,0
2016-01-18T01:21:54.897Z,0
2016-01-18T01:22:53.463Z,0
2016-01-18T01:23:53.543Z,0
2016-01-18T01:24:53.578Z,0
2016-01-18T01:25:53.642Z,0
2016-01-18T01:26:53.692Z,0
2016-01-18T01:27:53.726Z,0
2016-01-18T01:28:53.838Z,0
2016-01-18T01:29:53.857Z,0
2016-01-18T01:30:53.905Z,0
2016-01-18T01:31:53.971Z,0
2016-01-18T01:32:54.004Z,0
2016-01-18T01:33:54.071Z,0
2016-01-18T01:34:54.151Z,0
2016-01-18T01:35:54.185Z,0
2016-01-18T01:36:54.234Z,0
2016-01-18T01:37:54.300Z,0
2016-01-18T01:38:54.334Z,0
2016-01-18T01:39:54.399Z,0
2016-01-18T01:40:54.432Z,0
2016-01-18T01:41:54.498Z,0
2016-01-18T01:42:54.392Z,0
2016-01-18T01:43:54.613Z,0
2016-01-18T01:44:54.678Z,0
2016-01-18T01:45:54.727Z,0
2016-01-18T01:46:54.778Z,0
2016-01-18T01:47:54.842Z,0
2016-01-18T01:48:54.876Z,0
2016-01-18T01:49:54.941Z,0
2016-01-18T01:50:54.991Z,0
2016-01-18T01:51:55.353Z,0
2016-01-18T01:52:55.090Z,0
2016-01-18T01:53:55.155Z,0
2016-01-18T01:54:55.189Z,0
2016-01-18T01:55:55.255Z,0
2016-01-18T01:56:55.319Z,0
2016-01-18T01:57:55.353Z,0
2016-01-18T01:58:55.450Z,0
2016-01-18T01:59:55.484Z,0
2016-01-18T02:00:55.533Z,0
2016-01-18T02:01:55.583Z,0
2016-01-18T02:02:55.679Z,0
2016-01-18T02:03:55.699Z,0
2016-01-18T02:04:55.747Z,0
2016-01-18T02:05:55.796Z,0
2016-01-18T02:06:55.846Z,0
2016-01-18T02:07:55.912Z,0
2016-01-18T02:08:55.946Z,0
2016-01-18T02:09:56.026Z,0
2016-01-18T02:10:56.060Z,0
2016-01-18T02:11:56.126Z,0
2016-01-18T02:12:56.191Z,0
2016-01-18T02:13:56.240Z,0
2016-01-18T02:14:56.290Z,0
2016-01-18T02:15:56.356Z,0
2016-01-18T02:16:56.420Z,0
2016-01-18T02:17:56.454Z,0
2016-01-18T02:18:56.503Z,0
2016-01-18T02:19:56.553Z,0
2016-01-18T02:20:56.619Z,0
2016-01-18T02:21:56.668Z,0
2016-01-18T02:22:56.749Z,0
2016-01-18T02:23:56.798Z,0
2016-01-18T02:24:56.816Z,0
2016-01-18T02:25:56.913Z,0
2016-01-18T02:26:57.135Z,0
2016-01-18T02:27:56.981Z,0
2016-01-18T02:28:57.047Z,0
2016-01-18T02:29:57.096Z,0
2016-01-18T02:30:57.177Z,0
2016-01-18T02:31:57.210Z,0
2016-01-18T02:32:57.261Z,0
2016-01-18T02:33:57.154Z,0
2016-01-18T02:34:57.375Z,0
2016-01-18T02:35:57.424Z,0
2016-01-18T02:36:57.474Z,0
2016-01-18T02:37:57.540Z,0
2016-01-18T02:38:57.574Z,0
2016-01-18T02:39:57.638Z,0
2016-01-18T02:40:57.687Z,0
2016-01-18T02:41:57.768Z,0
2016-01-18T02:42:57.803Z,0
2016-01-18T02:43:57.868Z,0
2016-01-18T02:44:57.901Z,0
2016-01-18T02:45:57.982Z,0
2016-01-18T02:46:58.017Z,0
2016-01-18T02:47:58.067Z,0
2016-01-18T02:48:58.131Z,0
2016-01-18T02:49:58.181Z,0
2016-01-18T02:50:58.231Z,0
2016-01-18T02:51:58.281Z,0
2016-01-18T02:52:58.330Z,0
2016-01-18T02:53:58.410Z,0
2016-01-18T02:54:58.445Z,0
2016-01-18T02:55:58.884Z,0
2016-01-18T02:56:58.591Z,0
2016-01-18T02:57:58.608Z,0
2016-01-18T02:58:58.658Z,0
2016-01-18T02:59:58.724Z,0
2016-01-18T03:00:58.772Z,0
2016-01-18T03:01:58.838Z,0
2016-01-18T03:02:58.872Z,0
2016-01-18T03:03:58.938Z,0
2016-01-18T03:04:58.987Z,0
2016-01-18T03:05:59.052Z,0
2016-01-18T03:06:59.086Z,0
2016-01-18T03:07:59.152Z,0
2016-01-18T03:08:59.201Z,0
2016-01-18T03:09:59.266Z,0
2016-01-18T03:10:59.299Z,0
2016-01-18T03:11:59.382Z,0
2016-01-18T03:12:59.415Z,0
2016-01-18T03:13:59.480Z,0
2016-01-18T03:14:59.545Z,0
2016-01-18T03:15:59.594Z,0
2016-01-18T03:16:59.629Z,0
2016-01-18T03:17:59.726Z,0
2016-01-18T03:18:59.743Z,0
2016-01-18T03:19:59.792Z,0
2016-01-18T03:20:59.874Z,0
2016-01-18T03:21:59.939Z,0
2016-01-18T03:22:59.957Z,0
2016-01-18T03:24:00.006Z,0
2016-01-18T03:25:00.087Z,0
2016-01-18T03:26:00.122Z,0
2016-01-18T03:27:00.172Z,0
2016-01-18T03:28:00.236Z,0
2016-01-18T03:29:00.286Z,0
2016-01-18T03:30:00.336Z,0
2016-01-18T03:31:00.400Z,0
2016-01-18T03:32:00.481Z,0
2016-01-18T03:33:00.499Z,0
2016-01-18T03:34:00.597Z,0
2016-01-18T03:35:00.614Z,0
2016-01-18T03:36:00.664Z,0
2016-01-18T03:37:00.729Z,0
2016-01-18T03:38:00.763Z,0
2016-01-18T03:39:00.813Z,0
2016-01-18T03:40:00.877Z,0
2016-01-18T03:41:00.927Z,0
2016-01-18T03:42:00.977Z,0
2016-01-18T03:43:01.042Z,0
2016-01-18T03:44:01.107Z,0
2016-01-18T03:45:01.172Z,0
2016-01-18T03:46:01.238Z,0
2016-01-18T03:47:01.257Z,0
2016-01-18T03:48:01.306Z,0
2016-01-18T03:49:01.356Z,0
2016-01-18T03:50:01.436Z,0
2016-01-18T03:51:01.471Z,0
2016-01-18T03:52:01.520Z,0
2016-01-18T03:53:01.585Z,0
2016-01-18T03:54:01.665Z,0
2016-01-18T03:55:01.683Z,0
2016-01-18T03:56:01.734Z,0
2016-01-18T03:57:01.799Z,0
2016-01-18T03:58:01.848Z,0
2016-01-18T03:59:01.913Z,0
2016-01-18T04:00:02.056Z,0
2016-01-18T04:01:02.013Z,0
2016-01-18T04:02:02.078Z,0
2016-01-18T04:03:02.139Z,0
2016-01-18T04:04:02.157Z,0
2016-01-18T04:05:02.238Z,0
2016-01-18T04:06:02.273Z,0
2016-01-18T04:07:02.353Z,0
2016-01-18T04:08:02.387Z,0
2016-01-18T04:09:02.437Z,0
2016-01-18T04:10:02.486Z,0
2016-01-18T04:11:02.551Z,0
2016-01-18T04:12:02.600Z,0
2016-01-18T04:13:02.651Z,0
2016-01-18T04:14:02.700Z,0
2016-01-18T04:15:02.765Z,0
2016-01-18T04:16:02.814Z,0
2016-01-18T04:17:02.895Z,0
2016-01-18T04:18:02.930Z,0
2016-01-18T04:19:02.978Z,0
2016-01-18T04:20:03.028Z,0
2016-01-18T04:21:03.094Z,0
2016-01-18T04:22:03.127Z,0
2016-01-18T04:23:03.239Z,0
2016-01-18T04:24:03.242Z,0
2016-01-18T04:25:03.291Z,0
2016-01-18T04:26:03.357Z,0
2016-01-18T04:27:03.407Z,0
2016-01-18T04:28:03.457Z,0
2016-01-18T04:29:03.521Z,0
2016-01-18T04:30:03.571Z,0
2016-01-18T04:31:04.901Z,0
2016-01-18T04:32:03.691Z,0
2016-01-18T04:33:04.058Z,0
2016-01-18T04:34:03.769Z,0
2016-01-18T04:35:03.834Z,0
2016-01-18T04:36:03.931Z,0
2016-01-18T04:37:03.934Z,0
2016-01-18T04:38:03.999Z,0
2016-01-18T04:39:04.032Z,0
2016-01-18T04:40:03.973Z,0
2016-01-18T04:41:04.148Z,0
2016-01-18T04:42:04.213Z,0
2016-01-18T04:43:04.247Z,0
2016-01-18T04:44:04.312Z,0
2016-01-18T04:45:04.362Z,0
2016-01-18T04:46:04.426Z,0
2016-01-18T04:47:04.726Z,0
2016-01-18T04:48:04.525Z,0
2016-01-18T04:49:04.591Z,0
2016-01-18T04:50:04.641Z,0
2016-01-18T04:51:04.690Z,0
2016-01-18T04:52:04.739Z,0
2016-01-18T04:53:04.789Z,0
2016-01-18T04:54:04.869Z,0
2016-01-18T04:55:04.905Z,0
2016-01-18T04:56:05.047Z,0
2016-01-18T04:57:05.003Z,0
2016-01-18T04:58:05.068Z,0
2016-01-18T04:59:05.102Z,0
2016-01-18T05:00:05.183Z,0
2016-01-18T05:01:05.216Z,0
2016-01-18T05:02:05.282Z,0
2016-01-18T05:03:05.332Z,0
2016-01-18T05:04:05.382Z,0
2016-01-18T05:05:05.588Z,0
2016-01-18T05:06:05.480Z,0
2016-01-18T05:07:05.546Z,0
2016-01-18T05:08:05.596Z,0
2016-01-18T05:09:05.660Z,0
2016-01-18T05:10:05.695Z,0
2016-01-18T05:11:05.759Z,0
2016-01-18T05:12:05.810Z,0
2016-01-18T05:13:05.874Z,0
2016-01-18T05:14:05.924Z,0
2016-01-18T05:15:05.973Z,0
2016-01-18T05:16:06.303Z,0
2016-01-18T05:17:06.104Z,0
2016-01-18T05:18:06.154Z,0
2016-01-18T05:19:06.187Z,0
2016-01-18T05:20:06.252Z,0
2016-01-18T05:21:06.286Z,0
2016-01-18T05:22:06.352Z,0
2016-01-18T05:23:06.401Z,0
2016-01-18T05:24:06.513Z,0
2016-01-18T05:25:06.500Z,0
2016-01-18T05:26:06.566Z,0
2016-01-18T05:27:06.615Z,0
2016-01-18T05:28:06.696Z,0
2016-01-18T05:29:06.730Z,0
2016-01-18T05:30:06.780Z,0
2016-01-18T05:31:06.689Z,0
2016-01-18T05:32:06.925Z,0
2016-01-18T05:33:06.928Z,0
2016-01-18T05:34:06.994Z,0
2016-01-18T05:35:07.058Z,0
2016-01-18T05:36:06.968Z,0
2016-01-18T05:37:06.985Z,0
2016-01-18T05:38:07.207Z,0
2016-01-18T05:39:07.257Z,0
2016-01-18T05:40:07.322Z,0
2016-01-18T05:41:07.371Z,0
2016-01-18T05:42:07.421Z,0
2016-01-18T05:43:07.486Z,0
2016-01-18T05:44:07.521Z,0
2016-01-18T05:45:07.585Z,0
2016-01-18T05:46:08.775Z,0
2016-01-18T05:47:07.762Z,0
2016-01-18T05:48:08.108Z,0
2016-01-18T05:49:07.800Z,0
2016-01-18T05:50:07.848Z,0
2016-01-18T05:51:07.914Z,0
2016-01-18T05:52:07.947Z,0
2016-01-18T05:53:08.420Z,0
2016-01-18T05:54:08.109Z,0
2016-01-18T05:55:08.112Z,0
2016-01-18T05:56:08.177Z,0
2016-01-18T05:57:08.242Z,0
2016-01-18T05:58:08.292Z,0
2016-01-18T05:59:08.342Z,0
2016-01-18T06:00:08.375Z,0
2016-01-18T06:01:08.441Z,0
2016-01-18T06:02:08.506Z,0
2016-01-18T06:03:08.555Z,0
2016-01-18T06:04:08.590Z,0
2016-01-18T06:05:08.654Z,0
2016-01-18T06:06:08.705Z,0
2016-01-18T06:07:08.754Z,0
2016-01-18T06:08:08.663Z,0
2016-01-18T06:09:08.884Z,0
2016-01-18T06:10:08.918Z,0
2016-01-18T06:11:08.968Z,0
2016-01-18T06:12:09.032Z,0
2016-01-18T06:13:09.082Z,0
2016-01-18T06:14:10.179Z,0
2016-01-18T06:15:09.212Z,0
2016-01-18T06:16:09.231Z,0
2016-01-18T06:17:09.328Z,0
2016-01-18T06:18:09.362Z,0
2016-01-18T06:19:09.411Z,0
2016-01-18T06:20:09.461Z,0
2016-01-18T06:21:09.526Z,0
2016-01-18T06:22:09.576Z,0
2016-01-18T06:23:09.625Z,0
2016-01-18T06:24:09.675Z,0
2016-01-18T06:25:09.724Z,0
2016-01-18T06:26:09.774Z,0
2016-01-18T06:27:09.839Z,0
2016-01-18T06:28:09.889Z,4
2016-01-18T06:29:09.938Z,4
2016-01-18T06:30:10.003Z,4
2016-01-18T06:31:09.897Z,4
2016-01-18T06:32:10.119Z,4
2016-01-18T06:33:10.183Z,4
2016-01-18T06:34:10.233Z,4
2016-01-18T06:35:10.252Z,4
2016-01-18T06:36:10.316Z,4
2016-01-18T06:37:10.382Z,4
2016-01-18T06:38:10.432Z,4
2016-01-18T06:39:10.700Z,32
2016-01-18T06:40:10.546Z,32
2016-01-18T06:41:10.579Z,28
2016-01-18T06:42:10.630Z,28
2016-01-18T06:43:10.710Z,28
2016-01-18T06:44:10.744Z,28
2016-01-18T06:45:10.809Z,28
2016-01-18T06:46:10.874Z,28
2016-01-18T06:47:10.909Z,28
2016-01-18T06:48:10.959Z,28
2016-01-18T06:49:11.023Z,28
2016-01-18T06:50:11.073Z,28
2016-01-18T06:51:11.122Z,28
2016-01-18T06:52:11.173Z,28
2016-01-18T06:53:11.222Z,28
2016-01-18T06:54:11.287Z,28
2016-01-18T06:55:11.367Z,28
2016-01-18T06:56:11.386Z,32
2016-01-18T06:57:11.451Z,32
2016-01-18T06:58:11.500Z,28
2016-01-18T06:59:11.534Z,28
2016-01-18T07:00:11.600Z,28
2016-01-18T07:01:11.665Z,28
2016-01-18T07:02:11.714Z,32
2016-01-18T07:03:11.764Z,32
2016-01-18T07:04:11.813Z,32
2016-01-18T07:05:11.864Z,28
2016-01-18T07:06:11.928Z,28
2016-01-18T07:07:11.978Z,28
2016-01-18T07:08:12.027Z,28
2016-01-18T07:09:12.078Z,28
2016-01-18T07:10:12.157Z,28
2016-01-18T07:11:12.192Z,28
2016-01-18T07:12:12.257Z,28
2016-01-18T07:13:12.306Z,28
2016-01-18T07:14:12.357Z,28
2016-01-18T07:15:12.421Z,32
2016-01-18T07:16:12.487Z,32
2016-01-18T07:17:12.521Z,32
2016-01-18T07:18:12.554Z,32
2016-01-18T07:19:12.620Z,28
2016-01-18T07:20:12.684Z,28
2016-01-18T07:21:12.734Z,32
2016-01-18T07:22:12.784Z,32
2016-01-18T07:23:12.834Z,28
2016-01-18T07:24:31.993Z,28
2016-01-18T07:25:12.948Z,8
2016-01-18T07:26:13.014Z,16
2016-01-18T07:27:13.031Z,28
2016-01-18T07:28:13.098Z,28
2016-01-18T07:29:13.162Z,28
2016-01-18T07:30:13.211Z,28
2016-01-18T07:31:13.262Z,28
2016-01-18T07:32:13.311Z,8
2016-01-18T07:33:13.408Z,4
2016-01-18T07:34:13.425Z,8
2016-01-18T07:35:13.491Z,8
2016-01-18T07:36:13.541Z,8
2016-01-18T07:37:13.590Z,8
2016-01-18T07:38:13.639Z,8
2016-01-18T07:39:13.689Z,8
2016-01-18T07:40:13.755Z,12
2016-01-18T07:41:13.789Z,8
2016-01-18T07:42:13.838Z,12
2016-01-18T07:43:13.935Z,12
2016-01-18T07:44:13.969Z,12
2016-01-18T07:45:14.018Z,12
2016-01-18T07:46:14.082Z,16
2016-01-18T07:47:14.117Z,16
2016-01-18T07:48:14.166Z,16
2016-01-18T07:49:14.216Z,16
2016-01-18T07:50:14.296Z,20
2016-01-18T07:51:14.331Z,16
2016-01-18T07:52:14.395Z,16
2016-01-18T07:53:14.429Z,20
2016-01-18T07:54:14.496Z,20
2016-01-18T07:55:14.545Z,24
2016-01-18T07:56:14.609Z,24
2016-01-18T07:57:14.722Z,20
2016-01-18T07:58:14.709Z,28
2016-01-18T07:59:14.775Z,24
2016-01-18T08:00:14.809Z,28
2016-01-18T08:01:14.873Z,28
2016-01-18T08:02:14.922Z,28
2016-01-18T08:03:15.020Z,28
2016-01-18T08:04:15.053Z,28
2016-01-18T08:05:15.087Z,36
2016-01-18T08:06:15.121Z,36
2016-01-18T08:07:15.186Z,40
2016-01-18T08:08:15.236Z,44
2016-01-18T08:09:15.316Z,48
2016-01-18T08:10:15.335Z,48
2016-01-18T08:11:15.416Z,48
2016-01-18T08:12:15.449Z,48
2016-01-18T08:13:15.515Z,52
2016-01-18T08:14:16.596Z,52
2016-01-18T08:15:15.611Z,48
2016-01-18T08:16:15.661Z,48
2016-01-18T08:17:15.711Z,48
2016-01-18T08:18:15.776Z,44
2016-01-18T08:19:15.826Z,48
2016-01-18T08:20:15.891Z,48
2016-01-18T08:21:15.924Z,52
2016-01-18T08:22:15.990Z,52
2016-01-18T08:23:16.212Z,52
2016-01-18T08:24:16.151Z,56
2016-01-18T08:25:16.154Z,60
2016-01-18T08:26:16.204Z,60
2016-01-18T08:27:16.254Z,64
2016-01-18T08:28:16.430Z,68
2016-01-18T08:29:16.368Z,68
2016-01-18T08:30:16.716Z,68
2016-01-18T08:31:16.609Z,64
2016-01-18T08:32:16.518Z,64
2016-01-18T08:33:16.583Z,60
2016-01-18T08:34:16.618Z,60
2016-01-18T08:35:16.963Z,64
2016-01-18T08:36:16.732Z,60
2016-01-18T08:37:16.782Z,60
2016-01-18T08:38:17.034Z,64
2016-01-18T08:39:16.881Z,64
2016-01-18T08:40:16.929Z,72
2016-01-18T08:41:20.307Z,68
2016-01-18T08:42:17.154Z,76
2016-01-18T08:43:17.105Z,84
2016-01-18T08:44:17.141Z,84
2016-01-18T08:45:17.194Z,84
2016-01-18T08:46:17.511Z,84
2016-01-18T08:47:17.515Z,80
2016-01-18T08:48:17.351Z,76
2016-01-18T08:49:18.193Z,76
2016-01-18T08:50:19.175Z,72
2016-01-18T08:51:17.625Z,72
2016-01-18T08:52:18.202Z,76
2016-01-18T08:53:17.576Z,72
2016-01-18T08:54:17.623Z,72
2016-01-18T08:55:17.735Z,72
2016-01-18T08:56:17.704Z,72
2016-01-18T08:57:17.768Z,72
2016-01-18T08:58:17.832Z,72
2016-01-18T08:59:18.459Z,72
2016-01-18T09:00:17.913Z,72
2016-01-18T09:01:17.977Z,72
2016-01-18T09:02:18.198Z,72
2016-01-18T09:03:18.076Z,76
2016-01-18T09:04:18.172Z,72
2016-01-18T09:05:18.267Z,76
2016-01-18T09:06:18.474Z,76
2016-01-18T09:07:18.288Z,80
2016-01-18T09:08:18.338Z,88
2016-01-18T09:09:18.434Z,100
2016-01-18T09:10:18.576Z,116
2016-01-18T09:11:21.923Z,128
2016-01-18T09:12:18.551Z,144
2016-01-18T09:13:33.320Z,164
2016-01-18T09:14:18.682Z,176
2016-01-18T09:15:18.700Z,196
2016-01-18T09:16:18.765Z,212
2016-01-18T09:17:19.143Z,236
2016-01-18T09:18:19.240Z,260
2016-01-18T09:19:19.024Z,276
2016-01-18T09:20:19.590Z,288
2016-01-18T09:21:19.108Z,300
2016-01-18T09:22:19.095Z,312
2016-01-18T09:23:19.160Z,324
2016-01-18T09:24:19.288Z,332
2016-01-18T09:25:19.243Z,340
2016-01-18T09:26:19.293Z,348
2016-01-18T09:27:19.358Z,356
2016-01-18T09:28:19.439Z,364
2016-01-18T09:29:19.661Z,364
2016-01-18T09:30:19.554Z,376
2016-01-18T09:31:19.587Z,384
2016-01-18T09:32:19.622Z,396
2016-01-18T09:33:19.687Z,408
2016-01-18T09:34:19.720Z,420
2016-01-18T09:35:19.786Z,436
2016-01-18T09:36:19.835Z,432
2016-01-18T09:37:19.854Z,440
2016-01-18T09:38:19.935Z,456
2016-01-18T09:39:20.000Z,452
2016-01-18T09:40:20.033Z,452
2016-01-18T09:41:20.083Z,456
2016-01-18T09:42:20.148Z,460
2016-01-18T09:43:20.199Z,464
2016-01-18T09:44:20.310Z,468
2016-01-18T09:45:20.344Z,476
2016-01-18T09:46:20.378Z,476
2016-01-18T09:47:20.412Z,480
2016-01-18T09:48:20.462Z,484
2016-01-18T09:49:20.511Z,484
2016-01-18T09:50:20.560Z,488
2016-01-18T09:51:20.627Z,488
2016-01-18T09:52:20.675Z,492
2016-01-18T09:53:20.725Z,496
2016-01-18T09:54:20.790Z,504
2016-01-18T09:55:20.856Z,504
2016-01-18T09:56:20.905Z,508
2016-01-18T09:57:20.970Z,508
2016-01-18T09:58:21.004Z,512
2016-01-18T09:59:21.054Z,500
2016-01-18T10:00:21.134Z,496
2016-01-18T10:01:21.168Z,492
2016-01-18T10:02:21.218Z,496
2016-01-18T10:03:21.283Z,492
2016-01-18T10:04:21.331Z,484
2016-01-18T10:05:21.364Z,480
2016-01-18T10:06:21.414Z,484
2016-01-18T10:07:21.464Z,480
2016-01-18T10:08:21.528Z,476
2016-01-18T10:09:21.594Z,472
2016-01-18T10:10:21.644Z,476
2016-01-18T10:11:21.693Z,468
2016-01-18T10:12:21.821Z,464
2016-01-18T10:13:21.808Z,456
2016-01-18T10:14:21.873Z,448
2016-01-18T10:15:21.908Z,448
2016-01-18T10:16:21.972Z,440
2016-01-18T10:17:22.006Z,432
2016-01-18T10:18:22.055Z,428
2016-01-18T10:19:22.122Z,428
2016-01-18T10:20:22.171Z,420
2016-01-18T10:21:22.236Z,412
2016-01-18T10:22:22.285Z,404
2016-01-18T10:23:22.336Z,404
2016-01-18T10:24:22.385Z,396
2016-01-18T10:25:22.544Z,392
2016-01-18T10:26:22.515Z,388
2016-01-18T10:27:22.548Z,384
2016-01-18T10:28:22.615Z,376
2016-01-18T10:29:22.664Z,368
2016-01-18T10:30:22.713Z,356
2016-01-18T10:31:22.762Z,348
2016-01-18T10:32:22.828Z,344
2016-01-18T10:33:22.893Z,336
2016-01-18T10:34:22.927Z,332
2016-01-18T10:35:22.976Z,324
2016-01-18T10:36:23.026Z,320
2016-01-18T10:37:23.091Z,320
2016-01-18T10:38:23.141Z,312
2016-01-18T10:39:23.206Z,308
2016-01-18T10:40:23.240Z,308
2016-01-18T10:41:23.305Z,300
2016-01-18T10:42:23.355Z,296
2016-01-18T10:43:23.451Z,292
2016-01-18T10:44:23.454Z,288
2016-01-18T10:45:23.503Z,280
2016-01-18T10:46:23.569Z,276
2016-01-18T10:47:23.634Z,272
2016-01-18T10:48:23.668Z,268
2016-01-18T10:49:23.733Z,264
2016-01-18T10:50:23.783Z,260
2016-01-18T10:51:23.848Z,256
2016-01-18T10:52:23.913Z,248
2016-01-18T10:53:23.963Z,244
2016-01-18T10:54:23.980Z,240
2016-01-18T10:55:24.063Z,236
2016-01-18T10:56:24.096Z,228
2016-01-18T10:57:24.145Z,224
2016-01-18T10:58:24.210Z,220
2016-01-18T10:59:24.306Z,220
2016-01-18T11:00:24.326Z,216
2016-01-18T11:01:24.390Z,208
2016-01-18T11:02:24.424Z,208
2016-01-18T11:03:24.520Z,208
2016-01-18T11:04:24.570Z,204
2016-01-18T11:05:24.604Z,204
2016-01-18T11:06:24.654Z,200
2016-01-18T11:07:24.687Z,200
2016-01-18T11:08:25.097Z,192
2016-01-18T11:09:24.818Z,196
2016-01-18T11:10:24.853Z,188
2016-01-18T11:11:24.901Z,188
2016-01-18T11:12:24.998Z,184
2016-01-18T11:13:25.017Z,184
2016-01-18T11:14:25.066Z,180
2016-01-18T11:15:25.131Z,180
2016-01-18T11:16:25.180Z,184
2016-01-18T11:17:25.231Z,180
2016-01-18T11:18:25.280Z,180
2016-01-18T11:19:25.330Z,176
2016-01-18T11:20:25.410Z,176
2016-01-18T11:21:25.444Z,176
2016-01-18T11:22:25.494Z,176
2016-01-18T11:23:25.544Z,172
2016-01-18T11:24:25.608Z,168
2016-01-18T11:25:25.658Z,164
2016-01-18T11:26:25.723Z,164
2016-01-18T11:27:25.774Z,164
2016-01-18T11:28:25.822Z,156
2016-01-18T11:29:25.871Z,156
2016-01-18T11:30:25.921Z,156
2016-01-18T11:31:25.987Z,156
2016-01-18T11:32:26.052Z,152
2016-01-18T11:33:26.101Z,152
2016-01-18T11:34:26.151Z,152
2016-01-18T11:35:26.201Z,152
2016-01-18T11:36:26.251Z,152
2016-01-18T11:37:26.315Z,148
2016-01-18T11:38:26.381Z,148
2016-01-18T11:39:26.415Z,148
2016-01-18T11:40:26.480Z,144
2016-01-18T11:41:26.529Z,148
2016-01-18T11:42:26.579Z,144
2016-01-18T11:43:26.612Z,144
2016-01-18T11:44:26.678Z,144
2016-01-18T11:45:26.743Z,144
2016-01-18T11:46:26.793Z,144
2016-01-18T11:47:26.842Z,140
2016-01-18T11:48:26.891Z,144
2016-01-18T11:49:26.958Z,140
2016-01-18T11:50:26.991Z,140
2016-01-18T11:51:27.088Z,140
2016-01-18T11:52:27.105Z,140
2016-01-18T11:53:27.171Z,140
2016-01-18T11:54:32.392Z,140
2016-01-18T11:55:27.286Z,140
2016-01-18T11:56:27.335Z,136
2016-01-18T11:57:27.385Z,140
2016-01-18T11:58:27.435Z,136
2016-01-18T11:59:27.484Z,140
2016-01-18T12:00:27.549Z,136
2016-01-18T12:01:27.583Z,140
2016-01-18T12:02:27.649Z,136
2016-01-18T12:03:27.713Z,136
2016-01-18T12:04:27.748Z,136
2016-01-18T12:05:27.812Z,132
2016-01-18T12:06:27.863Z,116
2016-01-18T12:07:27.912Z,112
2016-01-18T12:08:27.977Z,112
2016-01-18T12:09:28.182Z,108
2016-01-18T12:10:28.075Z,100
2016-01-18T12:11:28.142Z,96
2016-01-18T12:12:28.191Z,112
2016-01-18T12:13:28.522Z,116
2016-01-18T12:14:28.289Z,128
2016-01-18T12:15:28.339Z,132
2016-01-18T12:16:28.406Z,132
2016-01-18T12:17:28.454Z,132
2016-01-18T12:18:28.503Z,128
2016-01-18T12:19:28.569Z,128
2016-01-18T12:20:28.759Z,128
2016-01-18T12:21:28.669Z,128
2016-01-18T12:22:28.811Z,128
2016-01-18T12:23:28.783Z,124
2016-01-18T12:24:28.833Z,116
2016-01-18T12:25:28.882Z,112
2016-01-18T12:26:28.963Z,112
2016-01-18T12:27:28.997Z,116
2016-01-18T12:28:29.047Z,108
2016-01-18T12:29:29.096Z,120
2016-01-18T12:30:29.193Z,124
2016-01-18T12:31:29.195Z,124
2016-01-18T12:32:29.260Z,124
2016-01-18T12:33:29.310Z,120
2016-01-18T12:34:29.360Z,128
2016-01-18T12:35:29.424Z,128
2016-01-18T12:36:29.834Z,128
2016-01-18T12:37:29.523Z,128
2016-01-18T12:38:29.590Z,128
2016-01-18T12:39:29.654Z,104
2016-01-18T12:40:29.687Z,92
2016-01-18T12:41:29.879Z,120
2016-01-18T12:42:29.834Z,120
2016-01-18T12:43:29.837Z,116
2016-01-18T12:44:29.886Z,116
2016-01-18T12:45:29.951Z,116
2016-01-18T12:46:30.000Z,116
2016-01-18T12:47:30.066Z,112
2016-01-18T12:48:30.303Z,108
2016-01-18T12:49:30.243Z,104
2016-01-18T12:50:33.464Z,104
2016-01-18T12:51:30.280Z,100
2016-01-18T12:52:30.408Z,96
2016-01-18T12:53:30.442Z,96
2016-01-18T12:54:30.428Z,100
2016-01-18T12:55:30.635Z,96
2016-01-18T12:56:30.591Z,100
2016-01-18T12:57:30.719Z,96
2016-01-18T12:58:30.643Z,92
2016-01-18T12:59:30.707Z,96
2016-01-18T13:00:30.774Z,96
2016-01-18T13:01:30.072Z,96
2016-01-18T13:02:30.888Z,96
2016-01-18T13:03:30.968Z,96
2016-01-18T13:04:31.049Z,92
2016-01-18T13:05:31.146Z,96
2016-01-18T13:06:31.071Z,92
2016-01-18T13:07:31.135Z,96
2016-01-18T13:08:31.185Z,92
2016-01-18T13:09:31.281Z,92
2016-01-18T13:10:31.457Z,92
2016-01-18T13:11:31.349Z,92
2016-01-18T13:12:31.415Z,92
2016-01-18T13:13:31.464Z,96
2016-01-18T13:14:31.592Z,96
2016-01-18T13:15:31.673Z,96
2016-01-18T13:16:31.612Z,96
2016-01-18T13:17:31.709Z,100
2016-01-18T13:18:31.962Z,100
2016-01-18T13:19:32.011Z,100
2016-01-18T13:20:31.905Z,100
2016-01-18T13:21:31.892Z,108
2016-01-18T13:22:31.925Z,84
2016-01-18T13:23:32.164Z,92
2016-01-18T13:24:32.056Z,112
2016-01-18T13:25:32.091Z,104
2016-01-18T13:26:32.156Z,104
2016-01-18T13:27:32.205Z,96
2016-01-18T13:28:32.255Z,100
2016-01-18T13:29:32.304Z,100
2016-01-18T13:30:32.370Z,96
2016-01-18T13:31:32.419Z,92
2016-01-18T13:32:32.499Z,92
2016-01-18T13:33:32.533Z,88
2016-01-18T13:34:32.583Z,84
2016-01-18T13:35:32.633Z,84
2016-01-18T13:36:32.683Z,84
2016-01-18T13:37:32.732Z,84
2016-01-18T13:38:32.812Z,80
2016-01-18T13:39:32.847Z,80
2016-01-18T13:40:32.912Z,80
2016-01-18T13:41:32.962Z,84
2016-01-18T13:42:33.262Z,80
2016-01-18T13:43:33.076Z,80
2016-01-18T13:44:33.110Z,80
2016-01-18T13:45:33.206Z,80
2016-01-18T13:46:33.225Z,80
2016-01-18T13:47:33.275Z,80
2016-01-18T13:48:33.340Z,80
2016-01-18T13:49:33.389Z,76
2016-01-18T13:50:33.439Z,80
2016-01-18T13:51:33.489Z,80
2016-01-18T13:52:33.570Z,80
2016-01-18T13:53:33.587Z,76
2016-01-18T13:54:33.669Z,76
2016-01-18T13:55:33.702Z,76
2016-01-18T13:56:33.752Z,76
2016-01-18T13:57:33.817Z,76
2016-01-18T13:58:33.867Z,76
2016-01-18T13:59:33.916Z,64
2016-01-18T14:00:33.966Z,68
2016-01-18T14:01:34.016Z,76
2016-01-18T14:02:34.111Z,76
2016-01-18T14:03:34.130Z,72
2016-01-18T14:04:34.195Z,80
2016-01-18T14:05:34.229Z,80
2016-01-18T14:06:34.295Z,80
2016-01-18T14:07:34.360Z,76
2016-01-18T14:08:34.394Z,72
2016-01-18T14:09:34.302Z,72
2016-01-18T14:10:34.507Z,76
2016-01-18T14:11:34.574Z,72
2016-01-18T14:12:34.607Z,72
2016-01-18T14:13:34.673Z,64
2016-01-18T14:14:34.722Z,64
2016-01-18T14:15:34.771Z,68
2016-01-18T14:16:34.837Z,64
2016-01-18T14:17:34.887Z,68
2016-01-18T14:18:35.343Z,64
2016-01-18T14:19:35.001Z,64
2016-01-18T14:20:35.051Z,64
2016-01-18T14:21:35.101Z,68
2016-01-18T14:22:35.150Z,64